createdAt,value
2019-01-25T00:02:26.024Z,12.67
2019-01-25T00:04:52.726Z,15.27
2019-01-25T00:07:20.061Z,14.80
2019-01-25T00:09:46.902Z,14.27
2019-01-25T00:12:13.664Z,14.77
2019-01-25T00:14:40.894Z,14.40
2019-01-25T00:17:08.206Z,14.53
2019-01-25T00:19:36.492Z,15.23
2019-01-25T00:22:04.494Z,14.17
2019-01-25T00:24:31.203Z,14.70
2019-01-25T00:26:59.408Z,14.10
2019-01-25T00:29:29.628Z,14.07
2019-01-25T00:31:57.131Z,14.43
2019-01-25T00:34:23.861Z,14.23
2019-01-25T00:36:50.778Z,12.50
2019-01-25T00:39:17.651Z,13.27
2019-01-25T00:41:45.590Z,13.23
2019-01-25T00:44:12.333Z,13.87
2019-01-25T00:46:39.333Z,12.63
2019-01-25T00:49:06.588Z,14.80
2019-01-25T00:51:33.983Z,14.43
2019-01-25T00:54:00.933Z,14.30
2019-01-25T00:56:27.584Z,12.93
2019-01-25T00:58:54.526Z,13.83
2019-01-25T01:01:21.261Z,13.60
2019-01-25T01:03:48.877Z,13.73
2019-01-25T01:06:15.765Z,13.67
2019-01-25T01:08:42.615Z,13.50
2019-01-25T01:11:09.451Z,13.17
2019-01-25T01:13:36.298Z,12.83
2019-01-25T01:16:03.449Z,13.63
2019-01-25T01:18:30.497Z,15.07
2019-01-25T01:20:57.237Z,14.20
2019-01-25T01:23:25.557Z,15.03
2019-01-25T01:25:52.432Z,13.20
2019-01-25T01:28:19.131Z,14.30
2019-01-25T01:30:45.944Z,13.23
2019-01-25T01:33:12.724Z,13.10
2019-01-25T01:35:39.964Z,13.13
2019-01-25T01:38:07.113Z,13.40
2019-01-25T01:40:33.931Z,11.50
2019-01-25T01:43:00.979Z,14.73
2019-01-25T01:45:28.855Z,13.27
2019-01-25T01:47:55.725Z,13.83
2019-01-25T01:50:22.537Z,12.67
2019-01-25T01:52:51.220Z,14.47
2019-01-25T01:55:18.065Z,13.73
2019-01-25T01:57:44.705Z,12.27
2019-01-25T02:00:11.758Z,13.83
2019-01-25T02:02:38.501Z,13.63
2019-01-25T02:05:05.176Z,12.03
2019-01-25T02:07:32.181Z,13.00
2019-01-25T02:09:58.872Z,12.83
2019-01-25T02:12:25.661Z,13.40
2019-01-25T02:14:52.505Z,13.17
2019-01-25T02:17:19.185Z,12.30
2019-01-25T02:19:47.635Z,12.10
2019-01-25T02:22:14.472Z,12.70
2019-01-25T02:24:41.522Z,13.17
2019-01-25T02:27:08.770Z,12.13
2019-01-25T02:29:35.648Z,13.17
2019-01-25T02:32:02.463Z,12.87
2019-01-25T02:34:29.300Z,13.97
2019-01-25T02:36:56.047Z,11.37
2019-01-25T02:39:24.014Z,13.50
2019-01-25T02:41:52.180Z,14.10
2019-01-25T02:44:19.612Z,12.90
2019-01-25T02:46:46.527Z,13.43
2019-01-25T02:49:13.746Z,14.03
2019-01-25T02:51:40.899Z,12.13
2019-01-25T02:54:09.406Z,12.80
2019-01-25T02:56:36.322Z,12.80
2019-01-25T02:59:03.090Z,12.17
2019-01-25T03:01:30.418Z,12.30
2019-01-25T03:03:57.980Z,13.10
2019-01-25T03:06:27.484Z,10.67
2019-01-25T03:08:57.227Z,11.27
2019-01-25T03:11:24.351Z,12.77
2019-01-25T03:13:51.175Z,13.23
2019-01-25T03:16:19.254Z,12.67
2019-01-25T03:18:47.333Z,11.83
2019-01-25T03:21:16.162Z,12.50
2019-01-25T03:23:43.274Z,11.37
2019-01-25T03:26:10.018Z,10.33
2019-01-25T03:28:38.100Z,12.40
2019-01-25T03:31:04.833Z,12.53
2019-01-25T03:33:31.674Z,12.67
2019-01-25T03:35:58.729Z,12.73
2019-01-25T03:38:26.806Z,12.37
2019-01-25T03:40:55.107Z,12.10
2019-01-25T03:43:22.219Z,12.57
2019-01-25T03:45:48.923Z,12.03
2019-01-25T03:48:17.359Z,12.43
2019-01-25T03:50:44.193Z,12.53
2019-01-25T03:53:12.268Z,12.53
2019-01-25T03:55:40.538Z,11.50
2019-01-25T03:58:07.502Z,12.37
2019-01-25T04:00:34.333Z,11.47
2019-01-25T04:03:03.505Z,12.27
2019-01-25T04:05:30.916Z,10.93
2019-01-25T04:07:57.638Z,11.77
2019-01-25T04:10:24.769Z,12.47
2019-01-25T04:12:51.724Z,12.27
2019-01-25T04:15:18.668Z,12.23
2019-01-25T04:17:45.611Z,11.43
2019-01-25T04:20:13.657Z,12.07
2019-01-25T04:22:40.347Z,11.77
2019-01-25T04:25:07.066Z,12.27
2019-01-25T04:27:34.008Z,11.30
2019-01-25T04:30:00.850Z,11.60
2019-01-25T04:32:27.821Z,10.70
2019-01-25T04:34:54.643Z,11.93
2019-01-25T04:37:22.553Z,11.87
2019-01-25T04:39:49.558Z,10.57
2019-01-25T04:42:16.335Z,11.30
2019-01-25T04:44:43.145Z,10.63
2019-01-25T04:47:09.880Z,10.20
2019-01-25T04:49:37.059Z,9.03
2019-01-25T04:52:04.903Z,10.40
2019-01-25T04:54:33.794Z,10.97
2019-01-25T04:57:00.876Z,10.37
2019-01-25T04:59:27.890Z,10.70
2019-01-25T05:01:55.862Z,10.07
2019-01-25T05:04:23.014Z,9.87
2019-01-25T05:06:49.788Z,10.20
2019-01-25T05:09:19.251Z,10.63
2019-01-25T05:11:46.132Z,11.03
2019-01-25T05:14:12.818Z,10.93
2019-01-25T05:16:39.606Z,8.87
2019-01-25T05:19:06.832Z,9.83
2019-01-25T05:21:33.580Z,10.70
2019-01-25T05:24:02.109Z,10.27
2019-01-25T05:26:28.583Z,9.23
2019-01-25T05:28:55.747Z,9.67
2019-01-25T05:31:22.507Z,10.80
2019-01-25T05:33:49.345Z,10.10
2019-01-25T05:36:16.295Z,9.70
2019-01-25T05:38:43.516Z,10.47
2019-01-25T05:41:10.217Z,9.27
2019-01-25T05:43:37.257Z,9.23
2019-01-25T05:46:03.926Z,9.87
2019-01-25T05:48:30.698Z,9.57
2019-01-25T05:50:57.511Z,10.70
2019-01-25T05:53:24.239Z,10.30
2019-01-25T05:55:51.433Z,9.77
2019-01-25T05:58:18.021Z,10.27
2019-01-25T06:00:45.303Z,9.30
2019-01-25T06:03:12.183Z,10.30
2019-01-25T06:05:39.341Z,10.07
2019-01-25T06:08:08.243Z,9.07
2019-01-25T06:10:34.894Z,9.30
2019-01-25T06:13:01.633Z,9.20
2019-01-25T06:15:28.329Z,9.37
2019-01-25T06:17:56.118Z,9.47
2019-01-25T06:20:22.955Z,8.33
2019-01-25T06:22:49.775Z,8.50
2019-01-25T06:25:16.553Z,10.33
2019-01-25T06:27:43.592Z,9.13
2019-01-25T06:30:10.201Z,8.23
2019-01-25T06:32:36.832Z,10.17
2019-01-25T06:35:03.950Z,9.13
2019-01-25T06:37:30.774Z,9.30
2019-01-25T06:40:00.173Z,9.23
2019-01-25T06:42:26.826Z,9.53
2019-01-25T06:44:53.424Z,9.30
2019-01-25T06:47:20.238Z,9.77
2019-01-25T06:49:46.974Z,10.07
2019-01-25T06:52:15.489Z,9.43
2019-01-25T06:54:42.113Z,8.67
2019-01-25T06:57:21.215Z,10.23
2019-01-25T06:59:49.339Z,9.73
2019-01-25T07:02:20.558Z,9.17
2019-01-25T07:04:47.231Z,9.43
2019-01-25T07:07:23.194Z,9.27
2019-01-25T07:09:51.739Z,10.23
2019-01-25T07:12:18.404Z,10.77
2019-01-25T07:14:45.146Z,9.83
2019-01-25T07:17:11.829Z,10.63
2019-01-25T07:19:38.560Z,10.03
2019-01-25T07:22:05.826Z,10.60
2019-01-25T07:24:32.754Z,11.40
2019-01-25T07:26:59.477Z,10.93
2019-01-25T07:29:27.140Z,10.67
2019-01-25T07:31:53.862Z,10.90
2019-01-25T07:34:20.579Z,10.77
2019-01-25T07:36:47.454Z,10.13
2019-01-25T07:39:16.323Z,9.97
2019-01-25T07:41:44.498Z,9.73
2019-01-25T07:44:11.141Z,9.33
2019-01-25T07:46:38.125Z,9.90
2019-01-25T07:49:04.985Z,10.40
2019-01-25T07:51:31.765Z,10.27
2019-01-25T07:53:59.884Z,11.20
2019-01-25T07:56:27.791Z,10.63
2019-01-25T07:58:54.525Z,11.80
2019-01-25T08:01:21.422Z,11.00
2019-01-25T08:03:48.079Z,11.00
2019-01-25T08:06:14.995Z,10.63
2019-01-25T08:08:41.715Z,9.43
2019-01-25T08:11:09.556Z,11.43
2019-01-25T08:13:37.343Z,10.00
2019-01-25T08:16:04.236Z,10.93
2019-01-25T08:18:31.610Z,11.13
2019-01-25T08:20:58.499Z,10.43
2019-01-25T08:23:25.188Z,10.87
2019-01-25T08:25:52.357Z,11.20
2019-01-25T08:28:19.138Z,10.17
2019-01-25T08:30:46.269Z,9.97
2019-01-25T08:33:16.513Z,11.07
2019-01-25T08:35:43.247Z,9.83
2019-01-25T08:38:11.393Z,11.53
2019-01-25T08:40:38.277Z,10.90
2019-01-25T08:43:04.957Z,11.33
2019-01-25T08:45:31.977Z,10.40
2019-01-25T08:47:59.039Z,10.10
2019-01-25T08:50:26.175Z,10.83
2019-01-25T08:52:53.240Z,9.90
2019-01-25T08:55:21.460Z,9.60
2019-01-25T08:57:48.486Z,10.57
2019-01-25T09:00:17.047Z,11.07
2019-01-25T09:02:46.750Z,10.27
2019-01-25T09:05:16.093Z,9.93
2019-01-25T09:07:43.246Z,10.10
2019-01-25T09:10:10.431Z,10.67
2019-01-25T09:12:37.084Z,9.63
2019-01-25T09:15:03.703Z,10.07
2019-01-25T09:17:30.477Z,9.53
2019-01-25T09:19:58.364Z,9.20
2019-01-25T09:22:26.208Z,11.00
2019-01-25T09:24:53.198Z,10.93
2019-01-25T09:27:20.112Z,8.73
2019-01-25T09:29:46.920Z,10.10
2019-01-25T09:32:13.910Z,9.83
2019-01-25T09:34:40.820Z,9.30
2019-01-25T09:37:07.464Z,11.27
2019-01-25T09:39:34.123Z,8.37
2019-01-25T09:42:01.273Z,10.27
2019-01-25T09:44:28.392Z,10.47
2019-01-25T09:46:55.248Z,10.97
2019-01-25T09:49:22.151Z,10.20
2019-01-25T09:51:48.931Z,9.53
2019-01-25T09:54:15.586Z,11.20
2019-01-25T09:56:42.316Z,10.43
2019-01-25T09:59:08.933Z,10.20
2019-01-25T10:01:35.566Z,11.80
2019-01-25T10:04:02.401Z,12.07
2019-01-25T10:06:29.135Z,9.70
2019-01-25T10:08:55.918Z,12.07
2019-01-25T10:11:22.902Z,10.60
2019-01-25T10:13:49.745Z,9.77
2019-01-25T10:16:16.937Z,11.30
2019-01-25T10:18:43.618Z,11.43
2019-01-25T10:21:10.694Z,11.13
2019-01-25T10:23:40.910Z,10.83
2019-01-25T10:26:07.615Z,10.57
2019-01-25T10:28:34.289Z,11.00
2019-01-25T10:31:01.080Z,10.63
2019-01-25T10:33:27.844Z,11.13
2019-01-25T10:35:55.751Z,10.97
2019-01-25T10:38:22.513Z,11.93
2019-01-25T10:40:49.341Z,11.83
2019-01-25T10:43:16.237Z,13.30
2019-01-25T10:45:43.001Z,11.43
2019-01-25T10:48:09.705Z,12.87
2019-01-25T10:50:36.795Z,12.00
2019-01-25T10:53:03.532Z,11.60
2019-01-25T10:55:30.487Z,11.97
2019-01-25T10:57:57.381Z,11.40
2019-01-25T11:00:24.190Z,11.77
2019-01-25T11:02:57.888Z,11.70
2019-01-25T11:05:21.247Z,11.03
2019-01-25T11:07:48.052Z,11.67
2019-01-25T11:10:14.750Z,11.87
2019-01-25T11:12:43.088Z,13.30
2019-01-25T11:15:10.093Z,12.20
2019-01-25T11:17:37.276Z,11.90
2019-01-25T11:20:04.467Z,11.97
2019-01-25T11:22:31.170Z,11.90
2019-01-25T11:24:57.808Z,12.83
2019-01-25T11:27:24.457Z,12.87
2019-01-25T11:29:52.362Z,12.07
2019-01-25T11:32:19.083Z,11.47
2019-01-25T11:34:46.018Z,11.77
2019-01-25T11:37:12.840Z,11.53
2019-01-25T11:39:41.520Z,12.73
2019-01-25T11:42:08.142Z,11.63
2019-01-25T11:44:34.865Z,12.17
2019-01-25T11:47:01.620Z,11.93
2019-01-25T11:49:28.450Z,12.33
2019-01-25T11:51:55.087Z,12.03
2019-01-25T11:54:22.836Z,10.43
2019-01-25T11:56:49.721Z,13.13
2019-01-25T11:59:16.512Z,11.60
2019-01-25T12:01:43.216Z,12.17
2019-01-25T12:04:11.643Z,13.40
2019-01-25T12:06:39.530Z,12.53
2019-01-25T12:09:06.380Z,12.40
2019-01-25T12:11:33.101Z,11.43
2019-01-25T12:13:59.738Z,13.37
2019-01-25T12:16:27.617Z,12.37
2019-01-25T12:18:54.400Z,12.30
2019-01-25T12:21:21.242Z,12.40
2019-01-25T12:23:47.892Z,12.37
2019-01-25T12:26:14.800Z,11.90
2019-01-25T12:28:41.798Z,13.57
2019-01-25T12:31:08.580Z,12.67
2019-01-25T12:33:37.638Z,12.17
2019-01-25T12:36:04.275Z,11.97
2019-01-25T12:38:31.224Z,12.37
2019-01-25T12:40:57.946Z,11.50
2019-01-25T12:43:25.189Z,11.33
2019-01-25T12:45:51.877Z,11.60
2019-01-25T12:48:18.925Z,11.10
2019-01-25T12:50:48.962Z,11.20
2019-01-25T12:53:14.799Z,12.03
2019-01-25T12:55:41.418Z,11.10
2019-01-25T12:58:08.183Z,11.47
2019-01-25T13:00:35.983Z,11.23
2019-01-25T13:03:02.945Z,10.47
2019-01-25T13:05:30.404Z,11.50
2019-01-25T13:07:59.222Z,10.93
2019-01-25T13:10:27.775Z,11.90
2019-01-25T13:12:54.685Z,11.77
2019-01-25T13:15:21.861Z,12.30
2019-01-25T13:17:48.727Z,11.53
2019-01-25T13:20:16.569Z,11.67
2019-01-25T13:22:44.329Z,11.30
2019-01-25T13:25:11.158Z,11.27
2019-01-25T13:27:37.909Z,11.13
2019-01-25T13:30:04.951Z,10.70
2019-01-25T13:32:31.752Z,10.33
2019-01-25T13:34:58.754Z,10.67
2019-01-25T13:37:25.667Z,11.00
2019-01-25T13:39:53.063Z,11.07
2019-01-25T13:42:20.911Z,10.63
2019-01-25T13:44:49.374Z,10.90
2019-01-25T13:47:18.182Z,12.20
2019-01-25T13:49:44.917Z,10.90
2019-01-25T13:52:11.625Z,10.57
2019-01-25T13:54:39.472Z,11.10
2019-01-25T13:57:06.145Z,10.17
2019-01-25T13:59:33.186Z,9.93
2019-01-25T14:02:00.643Z,10.53
2019-01-25T14:04:27.713Z,11.33
2019-01-25T14:06:54.561Z,12.00
2019-01-25T14:09:21.277Z,9.93
2019-01-25T14:11:48.091Z,11.20
2019-01-25T14:14:14.905Z,9.07
2019-01-25T14:16:42.044Z,9.67
2019-01-25T14:19:08.618Z,9.47
2019-01-25T14:21:35.283Z,10.93
2019-01-25T14:24:01.956Z,10.40
2019-01-25T14:26:28.564Z,9.97
2019-01-25T14:28:56.154Z,9.70
2019-01-25T14:31:22.910Z,12.43
2019-01-25T14:33:49.709Z,10.00
2019-01-25T14:36:19.554Z,10.50
2019-01-25T14:38:46.347Z,9.90
2019-01-25T14:41:14.091Z,10.03
2019-01-25T14:43:40.880Z,10.27
2019-01-25T14:46:07.539Z,9.60
2019-01-25T14:48:38.156Z,9.17
2019-01-25T14:51:03.725Z,10.20
2019-01-25T14:53:31.112Z,10.60
2019-01-25T14:56:00.752Z,8.93
2019-01-25T14:58:29.612Z,11.60
2019-01-25T15:00:57.735Z,9.43
2019-01-25T15:03:25.268Z,9.33
2019-01-25T15:05:52.510Z,9.27
2019-01-25T15:08:20.658Z,8.60
2019-01-25T15:10:47.686Z,9.23
2019-01-25T15:13:14.807Z,8.73
2019-01-25T15:15:41.650Z,9.27
2019-01-25T15:18:08.299Z,9.80
2019-01-25T15:20:35.063Z,8.70
2019-01-25T15:23:01.909Z,9.00
2019-01-25T15:25:32.280Z,8.80
2019-01-25T15:27:59.250Z,8.77
2019-01-25T15:30:26.242Z,8.77
2019-01-25T15:32:53.463Z,9.97
2019-01-25T15:35:20.191Z,9.50
2019-01-25T15:37:46.869Z,9.60
2019-01-25T15:40:13.894Z,8.90
2019-01-25T15:42:44.741Z,10.43
2019-01-25T15:45:11.734Z,10.10
2019-01-25T15:47:40.790Z,8.77
2019-01-25T15:50:07.596Z,9.13
2019-01-25T15:52:34.558Z,8.23
2019-01-25T15:55:02.359Z,9.63
2019-01-25T15:57:28.924Z,9.47
2019-01-25T15:59:57.481Z,9.00
2019-01-25T16:02:25.589Z,9.17
2019-01-25T16:04:54.421Z,8.87
2019-01-25T16:07:21.103Z,10.20
2019-01-25T16:09:47.787Z,10.03
2019-01-25T16:14:53.539Z,9.33
2019-01-25T16:17:21.585Z,10.07
2019-01-25T16:19:52.445Z,9.03
2019-01-25T16:22:19.199Z,9.07
2019-01-25T16:24:45.853Z,10.20
2019-01-25T16:27:13.057Z,9.40
2019-01-25T16:29:40.156Z,9.10
2019-01-25T16:32:07.711Z,8.57
2019-01-25T16:34:34.385Z,9.90
2019-01-25T16:37:02.135Z,11.63
2019-01-25T16:39:28.749Z,9.77
2019-01-25T16:41:55.450Z,9.33
2019-01-25T16:44:25.672Z,8.47
2019-01-25T16:46:50.907Z,10.40
2019-01-25T16:49:17.873Z,9.67
2019-01-25T16:51:44.551Z,10.53
2019-01-25T16:54:11.673Z,9.17
2019-01-25T16:56:38.317Z,10.03
2019-01-25T16:59:04.957Z,8.63
2019-01-25T17:01:31.593Z,9.93
2019-01-25T17:03:58.199Z,9.07
2019-01-25T17:06:24.860Z,8.87
2019-01-25T17:08:51.716Z,9.63
2019-01-25T17:11:19.758Z,10.10
2019-01-25T17:13:46.655Z,9.80
2019-01-25T17:16:15.188Z,9.90
2019-01-25T17:18:44.500Z,8.47
2019-01-25T17:21:11.232Z,10.43
2019-01-25T17:23:38.110Z,9.60
2019-01-25T17:26:04.859Z,10.57
2019-01-25T17:28:32.622Z,10.20
2019-01-25T17:30:59.684Z,9.43
2019-01-25T17:33:26.368Z,8.53
2019-01-25T17:35:53.118Z,9.27
2019-01-25T17:38:21.022Z,10.07
2019-01-25T17:40:48.034Z,9.10
2019-01-25T17:43:14.958Z,9.30
2019-01-25T17:45:41.819Z,10.03
2019-01-25T17:48:08.637Z,9.70
2019-01-25T17:50:35.316Z,9.33
2019-01-25T17:53:03.469Z,9.00
2019-01-25T17:55:30.298Z,9.10
2019-01-25T17:57:57.552Z,9.13
2019-01-25T18:00:29.356Z,8.00
2019-01-25T18:02:59.010Z,10.03
2019-01-25T18:05:25.637Z,9.20
2019-01-25T18:07:52.522Z,9.10
2019-01-25T18:10:19.092Z,9.30
2019-01-25T18:12:45.857Z,8.13
2019-01-25T18:15:12.973Z,8.90
2019-01-25T18:17:40.094Z,9.27
2019-01-25T18:20:06.817Z,8.87
2019-01-25T18:22:33.927Z,10.13
2019-01-25T18:25:00.926Z,10.53
2019-01-25T18:27:27.861Z,9.83
2019-01-25T18:29:54.849Z,8.93
2019-01-25T18:32:29.547Z,10.23
2019-01-25T18:34:57.528Z,9.43
2019-01-25T18:37:24.339Z,9.10
2019-01-25T18:39:51.220Z,10.07
2019-01-25T18:42:18.229Z,9.00
2019-01-25T18:44:46.059Z,9.93
2019-01-25T18:47:12.882Z,9.57
2019-01-25T18:49:39.687Z,9.13
2019-01-25T18:52:06.514Z,9.17
2019-01-25T18:54:33.195Z,9.63
2019-01-25T18:56:59.863Z,9.07
2019-01-25T18:59:26.638Z,9.93
2019-01-25T19:01:53.323Z,9.83
2019-01-25T19:04:20.353Z,9.20
2019-01-25T19:06:47.106Z,8.73
2019-01-25T19:09:13.953Z,10.00
2019-01-25T19:11:40.608Z,10.17
2019-01-25T19:14:07.730Z,9.43
2019-01-25T19:16:35.355Z,9.30
2019-01-25T19:19:03.388Z,9.40
2019-01-25T19:21:30.174Z,9.67
2019-01-25T19:23:57.016Z,9.50
2019-01-25T19:26:23.837Z,8.93
2019-01-25T19:28:50.604Z,9.87
2019-01-25T19:31:17.704Z,9.90
2019-01-25T19:33:46.054Z,8.40
2019-01-25T19:36:12.842Z,8.80
2019-01-25T19:38:39.616Z,9.67
2019-01-25T19:41:06.236Z,9.50
2019-01-25T19:43:32.953Z,9.33
2019-01-25T19:45:59.687Z,8.87
2019-01-25T19:48:27.543Z,10.47
2019-01-25T19:50:54.212Z,9.17
2019-01-25T19:53:21.155Z,10.00
2019-01-25T19:55:47.977Z,9.40
2019-01-25T19:58:15.062Z,9.50
2019-01-25T20:00:42.867Z,8.30
2019-01-25T20:03:11.062Z,9.07
2019-01-25T20:05:38.762Z,9.07
2019-01-25T20:08:05.577Z,8.97
2019-01-25T20:10:32.565Z,8.70
2019-01-25T20:12:59.237Z,8.93
2019-01-25T20:15:25.926Z,9.47
2019-01-25T20:17:54.455Z,7.43
2019-01-25T20:20:22.887Z,8.60
2019-01-25T20:22:51.177Z,9.57
2019-01-25T20:25:18.249Z,9.07
2019-01-25T20:27:44.958Z,9.07
2019-01-25T20:30:11.699Z,9.43
2019-01-25T20:32:40.219Z,9.27
2019-01-25T20:35:08.185Z,8.70
2019-01-25T20:37:35.071Z,9.53
2019-01-25T20:40:02.184Z,8.10
2019-01-25T20:42:28.957Z,8.53
2019-01-25T20:44:56.031Z,8.93
2019-01-25T20:47:22.875Z,8.77
2019-01-25T20:49:49.691Z,9.27
2019-01-25T20:52:16.547Z,10.20
2019-01-25T20:54:44.417Z,10.07
2019-01-25T20:57:11.067Z,9.03
2019-01-25T20:59:40.055Z,9.73
2019-01-25T21:02:07.317Z,9.23
2019-01-25T21:04:34.548Z,9.20
2019-01-25T21:07:01.193Z,10.03
2019-01-25T21:09:27.929Z,8.57
2019-01-25T21:11:54.551Z,9.70
2019-01-25T21:14:22.514Z,9.43
2019-01-25T21:16:49.381Z,9.03
2019-01-25T21:19:17.268Z,9.70
2019-01-25T21:21:44.029Z,9.33
2019-01-25T21:24:10.836Z,8.87
2019-01-25T21:26:37.601Z,9.57
2019-01-25T21:29:06.299Z,9.80
2019-01-25T21:31:33.763Z,9.00
2019-01-25T21:34:00.493Z,8.87
2019-01-25T21:36:27.508Z,8.93
2019-01-25T21:38:56.219Z,8.43
2019-01-25T21:41:23.268Z,9.40
2019-01-25T21:43:49.849Z,8.47
2019-01-25T21:46:17.871Z,9.80
2019-01-25T21:48:46.039Z,8.90
2019-01-25T21:51:12.682Z,8.57
2019-01-25T21:53:39.411Z,8.90
2019-01-25T21:56:07.604Z,8.73
2019-01-25T21:58:36.896Z,8.40
2019-01-25T22:01:03.536Z,9.37
2019-01-25T22:03:32.092Z,8.77
2019-01-25T22:05:59.364Z,8.10
2019-01-25T22:08:27.846Z,7.87
2019-01-25T22:10:54.939Z,7.97
2019-01-25T22:13:21.728Z,7.70
2019-01-25T22:15:50.999Z,7.33
2019-01-25T22:18:17.123Z,8.37
2019-01-25T22:20:43.890Z,8.87
2019-01-25T22:23:10.543Z,7.40
2019-01-25T22:25:37.175Z,8.87
2019-01-25T22:28:04.026Z,7.90
2019-01-25T22:30:30.664Z,7.47
2019-01-25T22:32:57.426Z,8.33
2019-01-25T22:35:24.046Z,7.90
2019-01-25T22:37:53.041Z,8.13
2019-01-25T22:40:20.056Z,6.90
2019-01-25T22:42:46.983Z,7.60
2019-01-25T22:45:13.572Z,8.43
2019-01-25T22:47:40.238Z,7.63
2019-01-25T22:50:08.810Z,7.87
2019-01-25T22:52:35.616Z,7.33
2019-01-25T22:55:04.204Z,7.77
2019-01-25T22:57:31.041Z,7.40
2019-01-25T22:59:57.641Z,7.93
2019-01-25T23:02:24.239Z,7.83
2019-01-25T23:04:52.684Z,7.00
2019-01-25T23:07:19.632Z,7.77
2019-01-25T23:09:46.348Z,7.77
2019-01-25T23:12:13.178Z,7.47
2019-01-25T23:14:39.990Z,7.17
2019-01-25T23:17:06.946Z,7.67
2019-01-25T23:19:33.695Z,6.87
2019-01-25T23:22:01.330Z,7.33
2019-01-25T23:24:28.084Z,8.03
2019-01-25T23:26:55.037Z,7.33
2019-01-25T23:29:23.476Z,7.13
2019-01-25T23:31:50.210Z,6.47
2019-01-25T23:34:16.884Z,7.13
2019-01-25T23:36:43.514Z,6.03
2019-01-25T23:39:10.810Z,6.70
2019-01-25T23:41:37.849Z,6.37
2019-01-25T23:44:04.454Z,6.77
2019-01-25T23:46:31.165Z,6.87
2019-01-25T23:48:58.087Z,6.93
2019-01-25T23:51:24.714Z,6.33
2019-01-25T23:53:51.714Z,6.63
2019-01-25T23:56:18.401Z,6.43
2019-01-25T23:58:45.117Z,5.93
